Time;durP1;ratioP1;P1;durP2;ratioP2;P2;SDS_P1;SDS_P2;PMS_P1;PMS_P2;Temp;Humidity;BMP_temperature;BMP_pressure;BME280_temperature;BME280_humidity;BME280_pressure;Samples;Min_cycle;Max_cycle;Signal;HPM_P1;HPM_P2
2023/01/19 00:01:37;;;;;;;6.15;3.40;;;;;;;15.84;57.01;98557.47;5071770;28;20374;-59
2023/01/19 00:04:06;;;;;;;5.32;3.28;;;;;;;15.80;57.23;98561.47;5070422;28;20121;-59
2023/01/19 00:06:34;;;;;;;5.70;3.00;;;;;;;15.79;56.87;98562.50;5072202;28;20045;-61
2023/01/19 00:09:03;;;;;;;6.20;3.30;;;;;;;15.77;57.03;98564.50;5071592;28;20151;-62
2023/01/19 00:11:31;;;;;;;5.25;2.90;;;;;;;15.74;57.15;98559.47;5071612;28;20044;-61
2023/01/19 00:13:59;;;;;;;5.25;3.22;;;;;;;15.70;57.32;98553.56;5071735;28;20083;-61
2023/01/19 00:16:29;;;;;;;6.50;3.45;;;;;;;15.66;57.41;98551.41;5071541;28;20477;-60
2023/01/19 00:18:57;;;;;;;5.32;3.05;;;;;;;15.65;57.44;98555.09;5071611;28;20049;-60
2023/01/19 00:21:25;;;;;;;6.32;3.10;;;;;;;15.59;57.41;98561.09;5071552;28;20047;-60
2023/01/19 00:23:53;;;;;;;6.03;3.15;;;;;;;15.57;57.50;98574.69;5071456;28;20052;-59
2023/01/19 00:26:22;;;;;;;5.43;3.15;;;;;;;15.54;57.46;98563.41;5071515;28;20059;-60
2023/01/19 00:28:50;;;;;;;6.82;3.42;;;;;;;15.52;57.44;98560.06;5070073;28;20053;-58
2023/01/19 00:31:20;;;;;;;5.57;3.13;;;;;;;15.51;57.67;98563.75;5071462;28;20045;-61
2023/01/19 00:33:53;;;;;;;5.25;2.90;;;;;;;15.49;57.57;98561.25;5070118;28;20052;-61
2023/01/19 00:36:21;;;;;;;5.72;2.70;;;;;;;15.45;57.60;98558.06;5073250;28;20106;-61
2023/01/19 00:38:49;;;;;;;4.75;2.83;;;;;;;15.42;57.68;98560.22;5075298;28;20082;-59
2023/01/19 00:41:18;;;;;;;4.80;3.00;;;;;;;15.42;57.74;98561.03;5075387;28;20047;-61
2023/01/19 00:44:05;;;;;;;5.45;3.10;;;;;;;15.40;57.70;98556.84;5075141;28;20044;-61
2023/01/19 00:46:33;;;;;;;5.28;3.33;;;;;;;15.38;57.69;98558.88;5075086;28;20045;-60
2023/01/19 00:49:03;;;;;;;5.38;2.78;;;;;;;15.34;57.66;98557.50;5074963;28;20040;-59
2023/01/19 00:51:32;;;;;;;5.75;3.42;;;;;;;15.29;57.74;98549.94;5075096;28;20495;-59
2023/01/19 00:54:07;;;;;;;6.70;2.88;;;;;;;15.30;57.67;98562.34;5075016;28;20386;-60
2023/01/19 00:56:35;;;;;;;5.68;3.20;;;;;;;15.28;57.70;98550.09;5074994;28;20404;-60
2023/01/19 00:59:04;;;;;;;6.03;3.17;;;;;;;15.27;57.95;98557.31;5075079;28;20044;-60
2023/01/19 01:01:32;;;;;;;4.72;3.00;;;;;;;15.24;57.96;98548.72;5074996;28;20052;-61
2023/01/19 01:04:14;;;;;;;4.75;2.80;;;;;;;15.22;57.90;98546.22;5074927;28;20071;-60
2023/01/19 01:06:42;;;;;;;5.55;3.00;;;;;;;15.20;57.82;98550.91;5073394;28;20076;-60
2023/01/19 01:09:11;;;;;;;4.60;2.60;;;;;;;15.17;57.95;98544.03;5074719;28;20052;-61
2023/01/19 01:11:40;;;;;;;5.32;2.80;;;;;;;15.17;57.96;98545.88;5074691;28;20045;-60
2023/01/19 01:14:09;;;;;;;5.03;3.15;;;;;;;15.13;58.08;98539.97;5074652;28;20468;-61
2023/01/19 01:16:37;;;;;;;4.13;2.60;;;;;;;15.13;58.05;98544.50;5074635;28;20041;-61
2023/01/19 01:19:06;;;;;;;5.65;2.95;;;;;;;15.10;57.95;98537.63;5074635;28;20072;-60
2023/01/19 01:21:36;;;;;;;5.53;3.30;;;;;;;15.06;58.00;98533.59;5074608;28;20051;-60
2023/01/19 01:24:04;;;;;;;5.28;3.00;;;;;;;15.07;57.98;98539.81;5074461;28;20079;-61
2023/01/19 01:26:32;;;;;;;4.45;2.88;;;;;;;15.05;58.05;98547.16;5074456;28;20071;-60
2023/01/19 01:29:01;;;;;;;4.68;2.95;;;;;;;15.03;57.95;98554.53;5074310;28;20480;-60
2023/01/19 01:31:30;;;;;;;4.22;2.60;;;;;;;15.02;57.90;98547.50;5073103;28;20057;-60
2023/01/19 01:33:58;;;;;;;4.32;2.70;;;;;;;15.00;57.90;98554.88;5074166;28;20045;-60
2023/01/19 01:36:27;;;;;;;5.60;2.80;;;;;;;14.98;57.96;98541.59;5074174;28;20083;-61
2023/01/19 01:38:57;;;;;;;5.47;2.80;;;;;;;14.97;57.83;98542.63;5074010;28;20048;-60
2023/01/19 01:41:26;;;;;;;4.72;2.67;;;;;;;14.95;57.79;98535.69;5072907;28;20052;-60
2023/01/19 01:43:57;;;;;;;4.90;2.85;;;;;;;14.75;57.72;98511.78;5072875;28;20052;-60
2023/01/19 01:46:26;;;;;;;4.82;2.60;;;;;;;14.93;57.92;98551.13;5073167;28;20048;-61
2023/01/19 01:49:00;;;;;;;4.50;2.55;;;;;;;14.90;57.90;98549.63;5074002;28;20045;-60
2023/01/19 01:51:34;;;;;;;4.50;2.45;;;;;;;14.86;57.91;98549.13;5073753;28;20102;-60
2023/01/19 01:54:13;;;;;;;3.92;2.42;;;;;;;14.84;57.88;98547.56;5073798;28;20045;-60
2023/01/19 01:56:44;;;;;;;4.15;2.50;;;;;;;14.83;57.82;98549.41;5073813;28;20115;-60
2023/01/19 01:59:24;;;;;;;5.00;2.60;;;;;;;14.82;57.88;98558.47;5073841;28;20068;-60
2023/01/19 02:04:46;;;;;;;4.30;2.40;;;;;;;14.74;57.66;98571.84;5073621;28;20173;-60
2023/01/19 02:15:39;;;;;;;4.13;2.53;;;;;;;14.69;58.18;98573.34;5073502;28;20161;-60
2023/01/19 02:18:07;;;;;;;4.78;2.20;;;;;;;14.66;57.90;98541.44;5073497;28;20077;-59
2023/01/19 02:20:37;;;;;;;4.07;2.47;;;;;;;14.66;58.08;98525.34;5073374;28;20397;-60
2023/01/19 02:23:14;;;;;;;3.58;2.15;;;;;;;14.62;57.76;98522.13;5073309;28;20072;-59
2023/01/19 02:25:44;;;;;;;3.95;2.22;;;;;;;14.62;57.79;98530.19;5073320;28;20094;-59
2023/01/19 02:28:13;;;;;;;4.18;2.20;;;;;;;14.60;57.95;98549.13;5072998;28;20060;-60
2023/01/19 02:30:41;;;;;;;3.55;2.08;;;;;;;14.58;57.81;98571.78;5073111;28;20114;-59
2023/01/19 02:33:10;;;;;;;4.00;2.20;;;;;;;14.57;57.73;98595.06;5072953;28;20044;-60
2023/01/19 02:35:40;;;;;;;3.22;2.00;;;;;;;14.54;58.12;98599.91;5073096;28;20056;-60
2023/01/19 02:38:10;;;;;;;3.38;1.80;;;;;;;14.53;57.89;98576.75;5073019;28;20083;-59
2023/01/19 02:40:43;;;;;;;3.90;2.22;;;;;;;14.52;58.06;98564.34;5073033;28;20052;-59
2023/01/19 02:43:12;;;;;;;4.72;2.30;;;;;;;14.51;58.15;98554.63;5072806;28;20545;-59
2023/01/19 02:45:42;;;;;;;3.92;2.00;;;;;;;14.49;57.87;98556.63;5072748;28;20048;-59
2023/01/19 02:48:10;;;;;;;3.45;1.80;;;;;;;14.48;58.08;98549.56;5072836;28;20549;-61
2023/01/19 02:50:42;;;;;;;4.20;1.80;;;;;;;14.45;58.00;98539.97;5071685;28;20481;-60
2023/01/19 02:53:28;;;;;;;3.40;2.00;;;;;;;14.44;57.92;98529.38;5072905;28;20111;-61
2023/01/19 02:56:07;;;;;;;3.08;1.77;;;;;;;14.41;58.25;98522.50;5072621;28;20044;-61
2023/01/19 02:58:45;;;;;;;3.50;2.00;;;;;;;14.42;58.44;98550.16;5071121;28;20040;-61
2023/01/19 03:01:21;;;;;;;2.70;1.63;;;;;;;14.40;58.13;98563.75;5072608;28;20466;-59
2023/01/19 03:03:55;;;;;;;3.35;1.98;;;;;;;14.38;58.19;98567.56;5072452;28;20044;-59
2023/01/19 03:06:36;;;;;;;3.13;1.88;;;;;;;14.39;58.20;98571.94;5072412;28;20052;-59
2023/01/19 03:09:11;;;;;;;2.70;1.60;;;;;;;14.36;58.15;98572.25;5072540;28;20119;-60
2023/01/19 03:11:46;;;;;;;2.67;1.52;;;;;;;14.36;58.16;98569.56;5072532;28;20132;-60
2023/01/19 03:14:22;;;;;;;3.92;1.70;;;;;;;14.33;58.27;98571.56;5072328;28;20047;-60
2023/01/19 03:16:54;;;;;;;2.65;1.67;;;;;;;14.32;58.34;98577.94;5072280;28;20055;-60
2023/01/19 03:19:27;;;;;;;3.35;1.70;;;;;;;14.27;58.32;98582.91;5072220;28;20048;-60
2023/01/19 03:21:58;;;;;;;3.00;1.60;;;;;;;14.28;58.49;98603.38;5072263;28;20051;-61
2023/01/19 03:24:31;;;;;;;2.90;1.60;;;;;;;14.28;58.28;98603.38;5072150;28;20094;-60
2023/01/19 03:27:04;;;;;;;3.37;1.73;;;;;;;14.27;58.04;98609.72;5071996;28;20040;-62
2023/01/19 03:29:34;;;;;;;3.15;1.70;;;;;;;14.24;58.07;98585.91;5072133;28;20040;-59
2023/01/19 03:32:09;;;;;;;3.25;1.52;;;;;;;14.24;58.45;98574.34;5072048;28;20063;-61
2023/01/19 03:34:39;;;;;;;2.63;1.50;;;;;;;14.20;58.28;98551.53;5072069;28;20055;-59
2023/01/19 03:37:10;;;;;;;1.77;1.23;;;;;;;14.20;58.27;98552.38;5072049;28;20051;-59
2023/01/19 03:39:38;;;;;;;2.78;1.58;;;;;;;14.19;58.22;98534.59;5072089;28;20523;-60
2023/01/19 03:42:11;;;;;;;3.30;1.77;;;;;;;14.17;58.16;98509.75;5071941;28;20050;-60
2023/01/19 03:44:43;;;;;;;2.08;1.30;;;;;;;14.16;58.25;98507.25;5071941;28;20049;-60
2023/01/19 03:47:14;;;;;;;3.08;1.48;;;;;;;14.15;58.52;98517.13;5071906;28;20044;-60
2023/01/19 03:49:45;;;;;;;2.85;1.80;;;;;;;14.13;58.40;98523.66;5071838;28;20524;-60
2023/01/19 03:52:13;;;;;;;3.25;1.60;;;;;;;14.12;58.69;98521.97;5071754;28;20049;-60
2023/01/19 03:54:42;;;;;;;2.53;1.42;;;;;;;14.11;58.73;98542.56;5071730;28;20045;-60
2023/01/19 03:57:10;;;;;;;2.10;1.30;;;;;;;14.08;58.74;98542.03;5071796;28;20055;-59
2023/01/19 03:59:39;;;;;;;2.33;1.40;;;;;;;14.09;58.68;98543.72;5071832;28;20052;-60
2023/01/19 04:02:08;;;;;;;3.08;1.73;;;;;;;14.04;58.80;98562.97;5071789;28;20462;-60
2023/01/19 04:04:36;;;;;;;1.95;1.40;;;;;;;14.04;58.80;98577.19;5071803;28;20406;-60
2023/01/19 04:07:05;;;;;;;2.03;1.35;;;;;;;14.04;58.84;98565.63;5071671;28;20490;-59
2023/01/19 04:09:34;;;;;;;2.35;1.25;;;;;;;14.03;58.38;98563.97;5071699;28;20055;-59
2023/01/19 04:12:02;;;;;;;2.72;1.50;;;;;;;14.02;58.62;98548.88;5075737;28;20052;-60
2023/01/19 04:14:30;;;;;;;2.22;1.27;;;;;;;13.97;58.65;98567.25;5075834;28;20047;-60
2023/01/19 04:17:00;;;;;;;3.08;1.60;;;;;;;14.00;58.81;98553.56;5075773;28;20044;-60
2023/01/19 04:19:28;;;;;;;2.83;1.50;;;;;;;13.98;58.69;98563.56;5075757;28;20055;-60
2023/01/19 04:21:56;;;;;;;2.85;1.52;;;;;;;13.95;58.53;98574.59;5075519;28;20044;-60
2023/01/19 04:24:24;;;;;;;2.88;1.40;;;;;;;13.94;58.55;98564.88;5075634;28;20099;-60
2023/01/19 04:26:52;;;;;;;2.58;1.33;;;;;;;13.94;58.67;98563.03;5075517;28;20047;-60
2023/01/19 04:29:23;;;;;;;3.53;1.48;;;;;;;13.93;58.79;98572.09;5075590;28;20139;-59
2023/01/19 04:31:51;;;;;;;2.25;1.35;;;;;;;13.91;58.72;98565.19;5075378;28;20055;-60
2023/01/19 04:34:20;;;;;;;1.70;1.13;;;;;;;13.90;58.66;98558.16;5075409;28;20538;-60
2023/01/19 04:36:49;;;;;;;2.40;1.40;;;;;;;13.90;58.82;98568.88;5075330;28;20049;-59
2023/01/19 04:39:18;;;;;;;2.42;1.52;;;;;;;13.90;59.17;98568.88;5075262;28;20041;-59
2023/01/19 04:41:46;;;;;;;2.42;1.45;;;;;;;13.88;59.17;98550.25;5075289;28;20048;-60
2023/01/19 04:44:14;;;;;;;2.38;1.35;;;;;;;13.98;59.32;98542.13;5075281;28;20044;-60
2023/01/19 04:46:42;;;;;;;2.38;1.45;;;;;;;14.05;59.77;98537.81;5075209;28;20052;-60
2023/01/19 04:49:11;;;;;;;1.75;1.20;;;;;;;14.13;59.76;98542.41;5075081;28;20055;-60
2023/01/19 04:51:40;;;;;;;2.17;1.40;;;;;;;14.21;59.83;98540.63;5075097;28;20047;-60
2023/01/19 04:54:08;;;;;;;1.85;1.20;;;;;;;14.30;59.80;98537.00;5075153;28;20055;-61
2023/01/19 04:56:37;;;;;;;1.95;1.20;;;;;;;14.40;59.59;98549.50;5073631;28;20394;-59
2023/01/19 04:59:05;;;;;;;3.05;1.40;;;;;;;14.50;59.54;98547.56;5074953;28;20437;-60
2023/01/19 05:01:34;;;;;;;2.42;1.42;;;;;;;14.62;59.44;98557.03;5074862;28;20044;-60
2023/01/19 05:04:04;;;;;;;1.77;1.02;;;;;;;14.68;59.44;98566.28;5074789;28;20048;-59
2023/01/19 05:06:32;;;;;;;1.83;1.00;;;;;;;14.77;59.37;98571.53;5074936;28;20128;-60
2023/01/19 05:09:01;;;;;;;1.80;1.00;;;;;;;14.87;59.42;98587.53;5074711;28;20040;-60
2023/01/19 05:11:29;;;;;;;1.67;1.10;;;;;;;14.95;59.20;98589.41;5074667;28;20127;-60
2023/01/19 05:13:58;;;;;;;1.77;1.15;;;;;;;15.05;59.13;98579.38;5074619;28;20127;-60
2023/01/19 05:16:26;;;;;;;1.85;1.17;;;;;;;15.15;59.11;98569.34;5074529;28;20123;-60
2023/01/19 05:18:54;;;;;;;2.33;1.30;;;;;;;15.20;59.05;98575.09;5074473;28;20615;-60
2023/01/19 05:21:22;;;;;;;1.98;1.10;;;;;;;15.31;59.01;98593.59;5074456;28;20047;-60
2023/01/19 05:23:51;;;;;;;1.95;1.13;;;;;;;15.42;58.97;98598.66;5073127;28;20071;-60
2023/01/19 05:26:20;;;;;;;1.08;0.88;;;;;;;15.49;58.77;98596.16;5074336;28;20049;-60
2023/01/19 05:28:49;;;;;;;2.63;1.20;;;;;;;15.60;58.77;98611.13;5074068;28;20059;-60
2023/01/19 05:31:17;;;;;;;3.05;1.20;;;;;;;15.68;58.56;98613.88;5074120;28;20048;-60
2023/01/19 05:33:47;;;;;;;2.08;1.02;;;;;;;15.76;58.33;98607.69;5074138;28;20481;-59
2023/01/19 05:36:15;;;;;;;1.75;1.10;;;;;;;15.74;58.36;98597.13;5074210;28;20049;-59
2023/01/19 05:38:43;;;;;;;2.40;1.08;;;;;;;15.82;58.24;98610.53;5074099;28;20140;-60
2023/01/19 05:41:11;;;;;;;1.80;1.10;;;;;;;15.83;58.23;98603.34;5074172;28;20052;-58
2023/01/19 05:43:41;;;;;;;1.55;0.93;;;;;;;15.82;58.23;98599.78;5074085;28;20045;-58
2023/01/19 05:46:12;;;;;;;1.63;1.00;;;;;;;15.81;58.25;98592.75;5073974;28;20067;-58
2023/01/19 05:48:40;;;;;;;2.15;1.10;;;;;;;15.79;58.16;98583.16;5073913;28;20131;-59
2023/01/19 05:51:08;;;;;;;2.53;1.27;;;;;;;15.77;58.23;98587.88;5073944;28;20044;-58
2023/01/19 05:53:37;;;;;;;1.52;0.90;;;;;;;15.74;58.36;98584.50;5073739;28;20166;-59
2023/01/19 05:56:08;;;;;;;1.38;0.95;;;;;;;15.72;58.35;98594.56;5073712;28;20094;-59
2023/01/19 05:58:38;;;;;;;2.45;1.10;;;;;;;15.70;58.28;98579.63;5073954;28;20055;-58
2023/01/19 06:01:10;;;;;;;1.67;1.05;;;;;;;15.67;58.21;98559.28;5073696;28;20048;-59
2023/01/19 06:03:39;;;;;;;1.48;0.85;;;;;;;15.66;58.30;98556.78;5073538;28;20051;-59
2023/01/19 06:06:08;;;;;;;2.05;1.20;;;;;;;15.64;58.35;98569.53;5073410;28;20119;-59
2023/01/19 06:08:36;;;;;;;1.50;0.80;;;;;;;15.60;58.26;98570.84;5073408;28;20053;-59
2023/01/19 06:11:05;;;;;;;1.88;0.95;;;;;;;15.55;58.25;98563.28;5073451;28;20052;-59
2023/01/19 06:13:34;;;;;;;2.03;1.10;;;;;;;15.54;58.31;98569.66;5073518;28;20072;-59
2023/01/19 06:16:03;;;;;;;0.75;0.60;;;;;;;15.52;58.46;98549.31;5073676;28;20397;-59
2023/01/19 06:18:32;;;;;;;1.38;0.80;;;;;;;15.48;58.26;98550.66;5073318;28;20044;-59
2023/01/19 06:21:04;;;;;;;1.77;1.00;;;;;;;15.44;58.32;98569.81;5073147;28;20044;-59
2023/01/19 06:23:33;;;;;;;1.75;1.08;;;;;;;15.38;58.22;98564.25;5073284;28;20041;-59
2023/01/19 06:26:01;;;;;;;2.05;1.05;;;;;;;15.35;58.29;98560.03;5073069;28;20460;-59
2023/01/19 06:28:29;;;;;;;1.33;0.95;;;;;;;15.33;58.36;98556.66;5072949;28;20102;-59
2023/01/19 06:30:58;;;;;;;1.75;1.00;;;;;;;15.29;58.26;98549.09;5073112;28;20044;-59
2023/01/19 06:33:27;;;;;;;1.67;1.08;;;;;;;15.26;58.25;98538.69;5072466;28;20509;-59
2023/01/19 06:35:57;;;;;;;1.58;1.02;;;;;;;15.21;58.39;98555.28;5072767;28;20105;-58
2023/01/19 06:38:25;;;;;;;1.95;1.15;;;;;;;15.18;58.27;98569.88;5072845;28;20090;-59
2023/01/19 06:40:54;;;;;;;1.65;1.00;;;;;;;15.16;58.41;98588.00;5072723;28;20090;-59
2023/01/19 06:43:22;;;;;;;1.35;0.85;;;;;;;15.15;58.36;98601.56;5072796;28;20378;-59
2023/01/19 06:45:51;;;;;;;2.03;1.25;;;;;;;15.12;58.35;98601.91;5072670;28;20123;-61
2023/01/19 06:48:20;;;;;;;1.27;0.85;;;;;;;15.08;58.53;98603.25;5072518;28;20055;-59
2023/01/19 06:50:49;;;;;;;2.08;1.35;;;;;;;15.05;58.32;98603.53;5072581;28;20044;-59
2023/01/19 06:53:21;;;;;;;1.33;0.82;;;;;;;15.01;58.29;98603.03;5072465;28;20072;-58
2023/01/19 06:55:49;;;;;;;1.48;1.10;;;;;;;14.98;58.23;98589.09;5072402;28;20455;-58
2023/01/19 06:58:17;;;;;;;2.05;1.15;;;;;;;14.94;58.41;98582.34;5072389;28;20045;-58
2023/01/19 07:00:45;;;;;;;1.58;0.90;;;;;;;14.91;58.49;98593.41;5072392;28;20052;-60
2023/01/19 07:03:19;;;;;;;1.85;1.13;;;;;;;14.86;58.35;98591.19;5072480;28;20052;-59
2023/01/19 07:05:51;;;;;;;1.15;0.85;;;;;;;14.84;58.25;98582.47;5072351;28;20047;-60
2023/01/19 07:08:21;;;;;;;1.45;0.90;;;;;;;14.77;58.31;98576.91;5072434;28;20048;-59
2023/01/19 07:10:49;;;;;;;1.92;1.10;;;;;;;14.79;58.49;98585.63;5072226;28;20044;-60
2023/01/19 07:13:39;;;;;;;1.30;1.00;;;;;;;14.77;58.39;98576.06;5072202;28;20052;-59
2023/01/19 07:16:10;;;;;;;1.38;0.90;;;;;;;14.74;58.34;98577.22;5072205;28;20045;-60
2023/01/19 07:18:39;;;;;;;1.60;0.88;;;;;;;14.71;58.47;98572.16;5070953;28;20048;-59
2023/01/19 07:21:07;;;;;;;4.65;1.00;;;;;;;14.69;58.38;98579.53;5072009;28;20478;-60
2023/01/19 07:23:37;;;;;;;1.52;0.82;;;;;;;14.67;58.26;98589.59;5072124;28;20052;-59
2023/01/19 07:26:05;;;;;;;1.63;0.90;;;;;;;14.63;58.40;98603.47;5072017;28;20044;-59
2023/01/19 07:28:33;;;;;;;1.45;0.77;;;;;;;14.57;58.40;98602.25;5071839;28;20111;-58
2023/01/19 07:31:02;;;;;;;1.90;1.00;;;;;;;14.58;58.66;98622.75;5072041;28;20048;-59
2023/01/19 07:33:30;;;;;;;2.42;1.20;;;;;;;14.55;58.20;98621.19;5071963;28;20054;-59
2023/01/19 07:35:58;;;;;;;2.03;0.98;;;;;;;14.54;58.39;98607.94;5071353;28;20048;-59
2023/01/19 07:38:26;;;;;;;3.53;1.10;;;;;;;14.52;58.31;98604.59;5071714;28;20045;-59
2023/01/19 07:41:01;;;;;;;1.08;0.95;;;;;;;14.48;58.27;98604.06;5071898;28;20497;-59
2023/01/19 07:43:29;;;;;;;1.90;1.17;;;;;;;14.46;58.20;98605.19;5071772;28;20373;-59
2023/01/19 07:45:58;;;;;;;1.20;0.90;;;;;;;14.45;58.29;98615.09;5070952;28;20048;-59
2023/01/19 07:48:27;;;;;;;1.75;0.90;;;;;;;14.42;58.29;98603.81;5071688;28;20099;-59
2023/01/19 07:50:59;;;;;;;1.98;1.10;;;;;;;14.42;58.27;98614.53;5071418;28;20513;-59
2023/01/19 07:53:28;;;;;;;1.83;1.00;;;;;;;14.36;58.33;98615.16;5070966;28;20094;-60
2023/01/19 07:55:56;;;;;;;1.63;1.10;;;;;;;14.39;58.47;98622.91;5071388;28;20078;-60
2023/01/19 07:58:26;;;;;;;2.03;1.25;;;;;;;14.35;58.18;98621.53;5071410;28;20044;-60
2023/01/19 08:00:54;;;;;;;2.30;1.00;;;;;;;14.35;58.50;98629.56;5071685;28;20052;-59
2023/01/19 08:03:22;;;;;;;2.22;1.08;;;;;;;14.32;58.62;98622.69;5071618;28;20087;-59
2023/01/19 08:05:52;;;;;;;1.45;0.88;;;;;;;14.33;58.88;98625.19;5071585;28;20484;-60
2023/01/19 08:08:20;;;;;;;2.30;1.13;;;;;;;14.33;58.92;98622.53;5070545;28;20048;-60
2023/01/19 08:10:50;;;;;;;2.00;1.08;;;;;;;14.33;58.90;98619.84;5070315;28;20036;-60
2023/01/19 08:13:18;;;;;;;2.55;1.10;;;;;;;14.32;58.94;98610.09;5070259;28;20052;-60
2023/01/19 08:15:51;;;;;;;1.73;1.02;;;;;;;14.33;58.97;98611.78;5070265;28;20071;-60
2023/01/19 08:18:19;;;;;;;1.38;0.98;;;;;;;14.31;59.13;98608.44;5069645;28;20064;-59
2023/01/19 08:20:48;;;;;;;1.85;0.98;;;;;;;14.31;58.93;98608.44;5069563;28;20102;-60
2023/01/19 08:23:16;;;;;;;2.08;0.93;;;;;;;14.29;58.87;98601.53;5070785;28;20040;-59
2023/01/19 08:25:45;;;;;;;1.80;1.20;;;;;;;14.24;58.94;98599.31;5070847;28;20123;-60
2023/01/19 08:28:17;;;;;;;1.75;1.27;;;;;;;14.27;58.83;98609.72;5071017;28;20060;-59
2023/01/19 08:30:52;;;;;;;1.30;1.08;;;;;;;14.26;59.07;98608.03;5070938;28;20428;-59
2023/01/19 08:33:24;;;;;;;1.73;1.10;;;;;;;14.25;59.14;98617.09;5070948;28;20128;-59
2023/01/19 08:35:53;;;;;;;2.50;1.50;;;;;;;14.23;59.06;98616.41;5070790;28;20434;-60
2023/01/19 08:38:21;;;;;;;1.98;1.30;;;;;;;14.21;58.87;98617.56;5070873;28;20048;-60
2023/01/19 08:40:49;;;;;;;2.83;1.40;;;;;;;14.21;59.02;98622.94;5070809;28;20480;-60
2023/01/19 08:43:18;;;;;;;2.05;1.30;;;;;;;14.20;59.08;98621.25;5070725;28;20051;-59
2023/01/19 08:45:51;;;;;;;1.95;1.30;;;;;;;14.20;58.97;98626.59;5070693;28;20044;-60
2023/01/19 08:48:24;;;;;;;2.45;1.42;;;;;;;14.16;58.95;98618.00;5070661;28;20044;-58
2023/01/19 08:50:53;;;;;;;2.58;1.40;;;;;;;14.16;58.96;98630.56;5070830;28;20369;-59
2023/01/19 08:53:23;;;;;;;2.40;1.20;;;;;;;14.13;59.02;98631.72;5070547;28;20045;-59
2023/01/19 08:55:56;;;;;;;1.33;1.05;;;;;;;14.14;59.06;98633.41;5070959;28;20067;-59
2023/01/19 08:58:24;;;;;;;;;;;;;;;14.13;58.72;98629.06;5074884;28;20040;-59
2023/01/19 09:00:52;;;;;;;1.85;1.10;;;;;;;14.07;59.01;98618.94;5074545;28;20387;-59
2023/01/19 09:03:22;;;;;;;2.20;1.23;;;;;;;14.09;59.00;98622.31;5074258;28;20051;-59
2023/01/19 09:05:50;;;;;;;1.73;1.20;;;;;;;14.08;58.84;98622.47;5074219;28;20064;-59
2023/01/19 09:08:19;;;;;;;1.83;1.23;;;;;;;14.06;59.01;98619.94;5074091;28;20051;-59
2023/01/19 09:10:50;;;;;;;1.80;1.27;;;;;;;14.04;59.10;98612.06;5074273;28;20048;-59
2023/01/19 09:13:19;;;;;;;2.08;1.15;;;;;;;14.04;58.78;98611.22;5074074;28;20048;-58
2023/01/19 09:15:48;;;;;;;2.17;1.33;;;;;;;14.03;59.07;98610.38;5073878;28;20044;-58
2023/01/19 09:18:18;;;;;;;2.20;1.40;;;;;;;14.02;58.95;98619.41;5074037;28;20075;-60
2023/01/19 09:20:49;;;;;;;3.03;1.60;;;;;;;13.98;58.96;98618.00;5073988;28;20148;-60
2023/01/19 09:23:20;;;;;;;2.35;1.48;;;;;;;13.98;58.78;98623.38;5073782;28;20080;-60
2023/01/19 09:25:48;;;;;;;2.22;1.38;;;;;;;13.99;58.96;98629.56;5072462;28;20513;-60
2023/01/19 09:28:17;;;;;;;2.38;1.50;;;;;;;13.97;58.76;98626.22;5073554;28;20417;-60
2023/01/19 09:30:45;;;;;;;2.20;1.15;;;;;;;13.97;59.17;98620.84;5073759;28;20134;-60
2023/01/19 09:33:16;;;;;;;2.90;1.65;;;;;;;13.93;58.94;98611.44;5073620;28;20401;-60
2023/01/19 09:35:45;;;;;;;2.25;1.40;;;;;;;13.93;58.88;98619.50;5073603;28;20473;-60
2023/01/19 09:38:18;;;;;;;2.38;1.38;;;;;;;13.91;58.91;98622.31;5073808;28;20123;-60
2023/01/19 09:40:50;;;;;;;1.67;1.25;;;;;;;13.90;59.00;98620.66;5073481;28;20086;-60
2023/01/19 09:43:28;;;;;;;3.25;1.50;;;;;;;13.90;59.13;98625.16;5073375;28;20051;-60
2023/01/19 09:45:58;;;;;;;3.05;1.52;;;;;;;13.88;59.18;98617.25;5073339;28;20036;-59
2023/01/19 09:48:36;;;;;;;2.38;1.70;;;;;;;13.88;59.11;98614.56;5073534;28;20048;-61
2023/01/19 09:51:07;;;;;;;2.47;1.70;;;;;;;13.87;59.01;98617.41;5073533;28;20051;-60
2023/01/19 09:53:49;;;;;;;2.67;1.63;;;;;;;13.85;59.10;98616.72;5073351;28;20051;-60
2023/01/19 09:56:19;;;;;;;2.42;1.48;;;;;;;13.84;59.14;98618.56;5073172;28;20040;-61
2023/01/19 09:58:49;;;;;;;3.50;1.73;;;;;;;13.83;59.14;98621.41;5073206;28;20052;-59
2023/01/19 10:01:32;;;;;;;2.85;1.70;;;;;;;13.82;58.98;98627.75;5073289;28;20432;-60
2023/01/19 10:04:31;;;;;;;3.15;1.70;;;;;;;13.78;59.13;98623.69;5073050;28;20048;-60
2023/01/19 10:07:11;;;;;;;3.45;1.55;;;;;;;13.79;59.17;98630.72;5071067;28;20049;-60
2023/01/19 10:09:53;;;;;;;4.10;2.33;;;;;;;13.77;59.10;98638.06;5072786;28;20074;-60
2023/01/19 10:12:33;;;;;;;3.72;1.70;;;;;;;13.75;58.97;98632.88;5073152;28;20044;-60
2023/01/19 10:15:13;;;;;;;3.78;2.30;;;;;;;13.73;58.88;98633.03;5072740;28;20503;-60
2023/01/19 10:17:51;;;;;;;3.00;1.80;;;;;;;13.73;59.25;98641.06;5072938;28;20481;-60
2023/01/19 10:20:25;;;;;;;3.15;2.10;;;;;;;13.72;58.92;98644.75;5072734;28;20064;-60
2023/01/19 10:22:55;;;;;;;3.50;2.03;;;;;;;13.71;59.11;98647.56;5072745;28;20055;-60
2023/01/19 10:25:26;;;;;;;3.28;1.98;;;;;;;13.70;59.10;98645.88;5072654;28;20044;-60
2023/01/19 10:27:55;;;;;;;3.75;2.30;;;;;;;13.68;59.09;98648.69;5072513;28;20516;-60
2023/01/19 10:30:26;;;;;;;4.57;2.80;;;;;;;13.68;59.07;98647.84;5072498;28;20040;-61
2023/01/19 10:32:54;;;;;;;4.00;2.08;;;;;;;13.62;59.25;98640.44;5072512;28;20081;-60
2023/01/19 10:35:24;;;;;;;3.45;2.10;;;;;;;13.65;59.26;98649.00;5071185;28;20060;-60
2023/01/19 10:37:55;;;;;;;4.20;2.85;;;;;;;13.61;58.94;98642.28;5072556;28;20152;-60
2023/01/19 10:40:33;;;;;;;4.13;2.80;;;;;;;13.61;59.27;98642.28;5072235;28;20440;-60
2023/01/19 10:43:01;;;;;;;4.28;2.85;;;;;;;13.60;59.13;98651.28;5070597;28;20059;-60
2023/01/19 10:45:31;;;;;;;3.90;2.70;;;;;;;13.59;59.05;98664.84;5072230;28;20049;-61
2023/01/19 10:48:06;;;;;;;4.78;2.83;;;;;;;13.55;59.08;98656.25;5072426;28;20052;-61
2023/01/19 10:50:38;;;;;;;3.67;2.50;;;;;;;13.56;59.12;98665.97;5072082;28;20050;-61
2023/01/19 10:53:20;;;;;;;3.55;2.50;;;;;;;13.54;59.40;98662.63;5072352;28;20131;-61
2023/01/19 10:56:11;;;;;;;4.25;2.63;;;;;;;13.52;58.97;98663.78;5072152;28;20059;-61
2023/01/19 10:58:40;;;;;;;4.50;2.60;;;;;;;13.52;59.08;98663.78;5070694;28;20048;-61
2023/01/19 11:01:18;;;;;;;4.53;2.67;;;;;;;13.49;59.20;98662.22;5071993;28;20464;-60
2023/01/19 11:03:46;;;;;;;3.50;2.33;;;;;;;13.49;59.10;98672.06;5071983;28;20063;-61
2023/01/19 11:06:29;;;;;;;4.65;2.50;;;;;;;13.46;59.15;98670.56;5071875;28;20504;-60
2023/01/19 11:09:15;;;;;;;4.15;2.63;;;;;;;13.45;59.17;98671.53;5071884;28;20040;-61
2023/01/19 11:11:49;;;;;;;3.78;2.40;;;;;;;13.44;59.13;98662.66;5071713;28;20106;-61
2023/01/19 11:14:21;;;;;;;;;;;;;;;13.43;59.12;98665.50;5071019;28;20095;-61
2023/01/19 11:16:52;;;;;;;4.22;2.50;;;;;;;13.42;59.21;98658.47;5071799;28;19927;-61
2023/01/19 11:19:26;;;;;;;3.47;2.20;;;;;;;13.37;59.11;98661.56;5071569;28;20051;-60
2023/01/19 11:22:09;;;;;;;4.22;2.60;;;;;;;13.36;59.27;98669.75;5071653;28;20052;-61
2023/01/19 11:24:39;;;;;;;4.00;2.30;;;;;;;13.34;59.40;98666.38;5071780;28;20056;-60
2023/01/19 11:27:08;;;;;;;4.22;2.75;;;;;;;13.37;59.08;98666.94;5071518;28;20044;-60
2023/01/19 11:29:37;;;;;;;3.72;2.45;;;;;;;13.36;59.05;98656.38;5071552;28;20044;-61
2023/01/19 11:32:20;;;;;;;3.83;2.30;;;;;;;13.34;59.15;98658.34;5071506;28;20098;-60
2023/01/19 11:34:49;;;;;;;3.97;2.40;;;;;;;13.35;59.11;98663.56;5071343;28;20110;-60
2023/01/19 11:37:28;;;;;;;3.60;2.20;;;;;;;13.33;59.11;98668.22;5070162;28;20059;-60
2023/01/19 11:39:58;;;;;;;3.92;2.40;;;;;;;13.32;59.31;98673.75;5071454;28;20044;-60
2023/01/19 11:42:32;;;;;;;4.03;2.45;;;;;;;13.30;59.11;98676.53;5071347;28;20047;-61
2023/01/19 11:45:04;;;;;;;3.90;2.63;;;;;;;13.30;59.33;98681.06;5071378;28;20257;-61
2023/01/19 11:47:39;;;;;;;5.57;3.00;;;;;;;13.26;59.06;98680.50;5071280;28;20102;-60
2023/01/19 11:50:15;;;;;;;3.83;2.40;;;;;;;13.24;59.45;98670.94;5071468;28;20418;-60
2023/01/19 11:52:47;;;;;;;4.28;2.33;;;;;;;13.24;59.32;98676.31;5069882;28;20471;-61
2023/01/19 11:55:22;;;;;;;3.35;2.30;;;;;;;13.22;59.09;98676.44;5071146;28;20053;-60
2023/01/19 11:57:53;;;;;;;4.22;2.58;;;;;;;13.22;59.00;98678.25;5071168;28;20046;-61
2023/01/19 12:00:28;;;;;;;4.25;2.58;;;;;;;13.22;59.38;98678.25;5071256;28;20045;-60
2023/01/19 12:03:03;;;;;;;3.70;2.30;;;;;;;13.18;59.14;98689.25;5069717;28;20048;-60